Glenpool, Oklahoma
Current Conditions -  °F | °C
As of 9:53 AM on Wednesday 22 Oct 2014 (Local Time) from KRVS Reporting Station
Few Clouds Few Clouds  
Wind Chill: 18°   Ceiling: Unl
Heat Index: 18°   Visibility: 10mi
Dew Point: 16°   Wind: 7mph
Humidity: 87%   Direction: 180°S
Pressure: 30.19"   Gusts: NA
Location:  35.95°N, 96.01°W
Report Text: KRVS 221453Z 18006KT 10SM FEW035 18/16 A3019 RMK AO2 SLP227 T01830161 51016
Loading
Personal Weather Stations






























Interactive Weather Map
Tropical Storm Tracking
New forecast layout! Learn more

10-Day Weather Forecast

Advertisements
Track Severe Weather on mobile